createdAt,value
2019-02-25T00:00:29.636Z,6.87
2019-02-25T00:01:29.626Z,7.00
2019-02-25T00:02:29.624Z,6.93
2019-02-25T00:03:29.604Z,6.92
2019-02-25T00:04:29.591Z,6.95
2019-02-25T00:05:29.580Z,6.92
2019-02-25T00:06:29.570Z,6.84
2019-02-25T00:07:29.611Z,6.81
2019-02-25T00:08:29.546Z,6.88
2019-02-25T00:09:29.536Z,6.77
2019-02-25T00:10:29.524Z,6.79
2019-02-25T00:11:29.512Z,6.78
2019-02-25T00:12:29.503Z,6.64
2019-02-25T00:13:29.491Z,6.72
2019-02-25T00:14:29.480Z,6.72
2019-02-25T00:15:29.468Z,6.63
2019-02-25T00:16:29.457Z,6.70
2019-02-25T00:17:29.449Z,6.64
2019-02-25T00:18:29.436Z,6.57
2019-02-25T00:19:29.423Z,6.60
2019-02-25T00:20:29.412Z,6.59
2019-02-25T00:21:29.400Z,6.56
2019-02-25T00:22:29.389Z,6.59
2019-02-25T00:23:29.379Z,6.63
2019-02-25T00:24:29.375Z,6.56
2019-02-25T00:25:29.357Z,6.52
2019-02-25T00:26:29.345Z,6.56
2019-02-25T00:27:29.333Z,6.54
2019-02-25T00:28:29.321Z,6.56
2019-02-25T00:29:29.310Z,6.54
2019-02-25T00:30:29.301Z,6.51
2019-02-25T00:31:29.289Z,6.45
2019-02-25T00:32:29.275Z,6.46
2019-02-25T00:33:29.264Z,6.46
2019-02-25T00:34:29.253Z,6.41
2019-02-25T00:35:29.244Z,6.41
2019-02-25T00:36:29.231Z,6.44
2019-02-25T00:37:29.221Z,6.30
2019-02-25T00:38:29.209Z,6.30
2019-02-25T00:39:29.198Z,6.36
2019-02-25T00:40:29.185Z,6.28
2019-02-25T00:41:29.174Z,6.19
2019-02-25T00:42:29.163Z,6.22
2019-02-25T00:43:29.153Z,6.12
2019-02-25T00:44:29.140Z,6.14
2019-02-25T00:45:29.129Z,6.08
2019-02-25T00:46:29.117Z,6.17
2019-02-25T00:47:29.105Z,6.14
2019-02-25T00:48:29.094Z,6.08
2019-02-25T00:49:29.084Z,6.11
2019-02-25T00:50:29.072Z,6.08
2019-02-25T00:51:29.071Z,6.07
2019-02-25T00:52:29.048Z,6.01
2019-02-25T00:53:29.037Z,5.99
2019-02-25T00:54:29.025Z,6.02
2019-02-25T00:55:29.013Z,6.02
2019-02-25T00:56:29.004Z,5.89
2019-02-25T00:57:28.991Z,5.99
2019-02-25T00:58:28.979Z,5.94
2019-02-25T00:59:28.967Z,5.94
2019-02-25T01:00:28.956Z,5.99
2019-02-25T01:01:28.945Z,5.97
2019-02-25T01:02:28.933Z,5.91
2019-02-25T01:03:28.921Z,5.90
2019-02-25T01:04:28.914Z,5.86
2019-02-25T01:05:28.898Z,5.75
2019-02-25T01:06:28.887Z,5.73
2019-02-25T01:07:28.875Z,5.90
2019-02-25T01:08:28.862Z,5.87
2019-02-25T01:09:28.851Z,5.87
2019-02-25T01:10:28.840Z,5.90
2019-02-25T01:11:28.827Z,5.86
2019-02-25T01:12:28.815Z,5.82
2019-02-25T01:13:28.804Z,5.76
2019-02-25T01:14:28.792Z,5.83
2019-02-25T01:15:28.780Z,5.79
2019-02-25T01:16:28.769Z,5.82
2019-02-25T01:17:28.757Z,5.76
2019-02-25T01:18:28.746Z,5.75
2019-02-25T01:19:28.734Z,5.73
2019-02-25T01:20:28.721Z,5.71
2019-02-25T01:21:28.710Z,5.66
2019-02-25T01:22:28.699Z,5.69
2019-02-25T01:23:28.686Z,5.65
2019-02-25T01:24:28.675Z,5.66
2019-02-25T01:25:28.663Z,5.64
2019-02-25T01:26:28.654Z,5.72
2019-02-25T01:27:28.638Z,5.73
2019-02-25T01:28:28.627Z,5.72
2019-02-25T01:29:28.617Z,5.61
2019-02-25T01:30:28.604Z,5.64
2019-02-25T01:31:28.594Z,5.62
2019-02-25T01:32:28.579Z,5.65
2019-02-25T01:33:28.568Z,5.69
2019-02-25T01:34:28.557Z,5.56
2019-02-25T01:35:28.547Z,5.54
2019-02-25T01:36:28.532Z,5.61
2019-02-25T01:37:28.520Z,5.57
2019-02-25T01:38:28.511Z,5.56
2019-02-25T01:39:28.496Z,5.61
2019-02-25T01:40:28.484Z,5.54
2019-02-25T01:41:28.474Z,5.51
2019-02-25T01:42:28.462Z,5.56
2019-02-25T01:43:28.448Z,5.44
2019-02-25T01:44:28.437Z,5.36
2019-02-25T01:45:28.425Z,5.38
2019-02-25T01:46:28.413Z,5.33
2019-02-25T01:47:28.400Z,5.29
2019-02-25T01:48:28.389Z,5.21
2019-02-25T01:49:28.378Z,5.26
2019-02-25T01:50:28.365Z,5.32
2019-02-25T01:51:28.353Z,5.32
2019-02-25T01:52:28.341Z,5.30
2019-02-25T01:53:28.329Z,5.23
2019-02-25T01:54:28.318Z,5.23
2019-02-25T01:55:28.305Z,5.30
2019-02-25T01:56:28.292Z,5.21
2019-02-25T01:57:28.281Z,5.23
2019-02-25T01:58:28.270Z,5.23
2019-02-25T01:59:28.260Z,5.26
2019-02-25T02:00:28.246Z,5.35
2019-02-25T02:01:28.233Z,5.25
2019-02-25T02:02:28.225Z,5.28
2019-02-25T02:03:28.211Z,5.30
2019-02-25T02:04:28.197Z,5.30
2019-02-25T02:05:28.186Z,5.28
2019-02-25T02:06:28.176Z,5.29
2019-02-25T02:07:28.160Z,5.30
2019-02-25T02:08:28.148Z,5.28
2019-02-25T02:09:28.139Z,5.30
2019-02-25T02:10:28.124Z,5.28
2019-02-25T02:11:28.114Z,5.28
2019-02-25T02:12:28.099Z,5.25
2019-02-25T02:13:28.087Z,5.25
2019-02-25T02:14:28.076Z,5.21
2019-02-25T02:15:28.063Z,5.15
2019-02-25T02:16:28.051Z,5.17
2019-02-25T02:17:28.039Z,5.11
2019-02-25T02:18:28.026Z,5.07
2019-02-25T02:19:28.014Z,4.96
2019-02-25T02:20:28.002Z,4.97
2019-02-25T02:21:27.990Z,4.94
2019-02-25T02:22:27.982Z,4.92
2019-02-25T02:23:27.965Z,4.78
2019-02-25T02:24:27.952Z,4.82
2019-02-25T02:25:27.942Z,4.74
2019-02-25T02:26:27.929Z,4.75
2019-02-25T02:27:27.915Z,4.74
2019-02-25T02:28:27.954Z,4.70
2019-02-25T02:29:27.891Z,4.77
2019-02-25T02:30:27.880Z,4.68
2019-02-25T02:31:27.866Z,4.68
2019-02-25T02:32:27.856Z,4.67
2019-02-25T02:33:27.841Z,4.59
2019-02-25T02:34:27.829Z,4.58
2019-02-25T02:35:27.817Z,4.63
2019-02-25T02:36:27.809Z,4.53
2019-02-25T02:37:27.792Z,4.56
2019-02-25T02:38:27.779Z,4.55
2019-02-25T02:39:27.768Z,4.45
2019-02-25T02:40:27.760Z,4.45
2019-02-25T02:41:27.745Z,4.49
2019-02-25T02:42:27.730Z,4.48
2019-02-25T02:43:27.716Z,4.40
2019-02-25T02:44:27.705Z,4.32
2019-02-25T02:45:27.692Z,4.30
2019-02-25T02:46:27.682Z,4.35
2019-02-25T02:47:27.666Z,4.34
2019-02-25T02:48:27.654Z,4.32
2019-02-25T02:49:27.645Z,4.37
2019-02-25T02:50:27.630Z,4.42
2019-02-25T02:51:27.617Z,4.42
2019-02-25T02:52:27.603Z,4.41
2019-02-25T02:53:27.591Z,4.35
2019-02-25T02:54:27.578Z,4.32
2019-02-25T02:55:27.565Z,4.41
2019-02-25T02:56:27.552Z,4.45
2019-02-25T02:57:27.540Z,4.49
2019-02-25T02:58:27.527Z,4.55
2019-02-25T02:59:27.515Z,4.67
2019-02-25T03:00:27.508Z,4.53
2019-02-25T03:01:27.490Z,4.58
2019-02-25T03:02:27.527Z,4.44
2019-02-25T03:03:27.471Z,4.42
2019-02-25T03:04:27.451Z,4.44
2019-02-25T03:05:27.441Z,4.40
2019-02-25T03:06:27.426Z,4.35
2019-02-25T03:07:27.413Z,4.37
2019-02-25T03:08:27.405Z,4.26
2019-02-25T03:09:27.389Z,4.34
2019-02-25T03:10:27.376Z,4.22
2019-02-25T03:11:27.364Z,4.13
2019-02-25T03:12:27.350Z,4.22
2019-02-25T03:13:27.337Z,4.05
2019-02-25T03:14:27.325Z,4.04
2019-02-25T03:15:27.312Z,4.02
2019-02-25T03:16:27.301Z,4.06
2019-02-25T03:17:27.295Z,3.98
2019-02-25T03:18:27.277Z,4.02
2019-02-25T03:19:27.262Z,3.98
2019-02-25T03:20:27.249Z,4.01
2019-02-25T03:21:27.237Z,3.96
2019-02-25T03:22:27.223Z,3.86
2019-02-25T03:23:27.210Z,3.84
2019-02-25T03:24:27.198Z,3.87
2019-02-25T03:25:27.198Z,3.80
2019-02-25T03:26:27.176Z,3.81
2019-02-25T03:27:27.159Z,3.83
2019-02-25T03:28:27.196Z,3.80
2019-02-25T03:29:27.136Z,3.81
2019-02-25T03:30:27.123Z,3.84
2019-02-25T03:31:27.143Z,3.96
2019-02-25T03:32:27.096Z,4.04
2019-02-25T03:33:27.083Z,4.02
2019-02-25T03:34:27.070Z,4.02
2019-02-25T03:35:27.056Z,4.04
2019-02-25T03:36:27.045Z,4.04
2019-02-25T03:37:27.076Z,4.04
2019-02-25T03:38:27.018Z,4.12
2019-02-25T03:39:27.005Z,4.14
2019-02-25T03:40:26.994Z,4.06
2019-02-25T03:41:26.981Z,4.08
2019-02-25T03:42:26.967Z,4.19
2019-02-25T03:43:26.954Z,4.14
2019-02-25T03:44:26.941Z,4.10
2019-02-25T03:45:26.929Z,4.35
2019-02-25T03:46:26.916Z,4.35
2019-02-25T03:47:26.903Z,4.41
2019-02-25T03:48:26.890Z,4.58
2019-02-25T03:49:26.876Z,4.41
2019-02-25T03:50:26.864Z,4.44
2019-02-25T03:51:26.849Z,4.38
2019-02-25T03:52:26.836Z,4.37
2019-02-25T03:53:26.826Z,4.28
2019-02-25T03:54:26.813Z,4.35
2019-02-25T03:55:26.807Z,4.38
2019-02-25T03:56:26.785Z,4.31
2019-02-25T03:57:26.773Z,4.41
2019-02-25T03:58:26.760Z,4.53
2019-02-25T03:59:26.746Z,4.53
2019-02-25T04:00:26.732Z,4.62
2019-02-25T04:01:26.721Z,4.73
2019-02-25T04:02:26.707Z,4.67
2019-02-25T04:03:26.694Z,4.80
2019-02-25T04:04:26.680Z,4.82
2019-02-25T04:05:26.672Z,4.84
2019-02-25T04:06:26.655Z,4.73
2019-02-25T04:07:26.641Z,4.70
2019-02-25T04:08:26.630Z,4.73
2019-02-25T04:09:26.615Z,4.77
2019-02-25T04:10:26.603Z,4.66
2019-02-25T04:11:26.589Z,4.71
2019-02-25T04:12:26.576Z,4.63
2019-02-25T04:13:26.563Z,4.68
2019-02-25T04:14:26.555Z,4.63
2019-02-25T04:15:26.538Z,4.53
2019-02-25T04:16:26.525Z,4.70
2019-02-25T04:17:26.512Z,4.66
2019-02-25T04:18:26.499Z,4.68
2019-02-25T04:19:26.485Z,4.71
2019-02-25T04:20:26.475Z,4.71
2019-02-25T04:21:26.460Z,4.73
2019-02-25T04:22:26.449Z,4.73
2019-02-25T04:23:26.433Z,4.84
2019-02-25T04:24:26.422Z,4.73
2019-02-25T04:25:26.408Z,4.86
2019-02-25T04:26:26.394Z,4.73
2019-02-25T04:27:26.380Z,4.80
2019-02-25T04:28:26.371Z,4.70
2019-02-25T04:29:26.355Z,4.77
2019-02-25T04:30:26.344Z,4.70
2019-02-25T04:31:26.327Z,4.68
2019-02-25T04:32:26.320Z,4.70
2019-02-25T04:33:26.302Z,4.63
2019-02-25T04:34:26.289Z,4.53
2019-02-25T04:35:26.277Z,4.58
2019-02-25T04:36:26.262Z,4.56
2019-02-25T04:37:26.249Z,4.59
2019-02-25T04:38:26.237Z,4.55
2019-02-25T04:39:26.224Z,4.55
2019-02-25T04:40:26.213Z,4.50
2019-02-25T04:41:26.198Z,4.50
2019-02-25T04:42:26.185Z,4.37
2019-02-25T04:43:26.170Z,4.40
2019-02-25T04:44:26.160Z,4.34
2019-02-25T04:45:26.148Z,4.34
2019-02-25T04:46:26.136Z,4.19
2019-02-25T04:47:26.118Z,4.28
2019-02-25T04:48:26.105Z,4.23
2019-02-25T04:49:26.092Z,4.20
2019-02-25T04:50:26.083Z,4.06
2019-02-25T04:51:26.065Z,4.14
2019-02-25T04:52:26.052Z,4.01
2019-02-25T04:53:26.040Z,4.12
2019-02-25T04:54:26.028Z,3.99
2019-02-25T04:55:26.015Z,3.94
2019-02-25T04:56:26.002Z,3.92
2019-02-25T04:57:25.988Z,3.84
2019-02-25T04:58:25.975Z,3.86
2019-02-25T04:59:25.961Z,3.87
2019-02-25T05:00:25.949Z,3.84
2019-02-25T05:01:25.936Z,3.96
2019-02-25T05:02:25.922Z,4.06
2019-02-25T05:03:25.910Z,4.12
2019-02-25T05:04:25.898Z,4.20
2019-02-25T05:05:25.882Z,4.17
2019-02-25T05:06:25.872Z,4.31
2019-02-25T05:07:25.858Z,4.35
2019-02-25T05:08:25.848Z,4.42
2019-02-25T05:09:25.828Z,4.38
2019-02-25T05:10:25.816Z,4.40
2019-02-25T05:11:25.823Z,4.35
2019-02-25T05:12:25.788Z,4.35
2019-02-25T05:13:25.773Z,4.34
2019-02-25T05:14:25.777Z,4.42
2019-02-25T05:15:25.749Z,4.37
2019-02-25T05:16:25.733Z,4.35
2019-02-25T05:17:25.720Z,4.38
2019-02-25T05:18:25.717Z,4.31
2019-02-25T05:19:25.693Z,4.44
2019-02-25T05:20:25.680Z,4.42
2019-02-25T05:21:25.667Z,4.41
2019-02-25T05:22:25.656Z,4.59
2019-02-25T05:23:25.641Z,4.55
2019-02-25T05:24:25.710Z,4.56
2019-02-25T05:25:25.621Z,4.67
2019-02-25T05:26:25.599Z,4.71
2019-02-25T05:27:25.586Z,4.78
2019-02-25T05:28:25.575Z,4.68
2019-02-25T05:29:25.560Z,4.77
2019-02-25T05:30:25.546Z,4.71
2019-02-25T05:31:25.531Z,4.67
2019-02-25T05:32:25.518Z,4.77
2019-02-25T05:33:25.505Z,4.71
2019-02-25T05:34:25.494Z,4.71
2019-02-25T05:35:25.477Z,4.77
2019-02-25T05:36:25.465Z,4.71
2019-02-25T05:37:25.452Z,4.68
2019-02-25T05:38:25.444Z,4.80
2019-02-25T05:39:25.436Z,4.70
2019-02-25T05:40:25.410Z,4.77
2019-02-25T05:41:25.397Z,4.67
2019-02-25T05:42:25.383Z,4.67
2019-02-25T05:43:25.369Z,4.58
2019-02-25T05:44:25.357Z,4.50
2019-02-25T05:45:25.344Z,4.48
2019-02-25T05:46:25.337Z,4.48
2019-02-25T05:47:25.316Z,4.37
2019-02-25T05:48:25.306Z,4.38
2019-02-25T05:49:25.290Z,4.55
2019-02-25T05:50:25.277Z,4.73
2019-02-25T05:51:25.264Z,4.84
2019-02-25T05:52:25.250Z,4.93
2019-02-25T05:53:25.237Z,4.89
2019-02-25T05:54:25.231Z,4.86
2019-02-25T05:55:25.213Z,4.86
2019-02-25T05:56:25.199Z,4.86
2019-02-25T05:57:25.185Z,4.73
2019-02-25T05:58:25.182Z,4.71
2019-02-25T05:59:25.159Z,4.53
2019-02-25T06:00:25.147Z,4.59
2019-02-25T06:01:25.136Z,4.50
2019-02-25T06:02:25.121Z,4.49
2019-02-25T06:03:25.107Z,4.44
2019-02-25T06:04:25.094Z,4.42
2019-02-25T06:05:25.081Z,4.45
2019-02-25T06:06:25.068Z,4.62
2019-02-25T06:07:25.054Z,4.58
2019-02-25T06:08:25.044Z,4.62
2019-02-25T06:09:25.032Z,4.77
2019-02-25T06:10:25.017Z,4.77
2019-02-25T06:11:25.002Z,4.82
2019-02-25T06:12:24.989Z,4.84
2019-02-25T06:13:24.977Z,4.89
2019-02-25T06:14:24.962Z,4.99
2019-02-25T06:15:24.950Z,5.02
2019-02-25T06:16:24.936Z,5.02
2019-02-25T06:17:24.923Z,4.99
2019-02-25T06:18:24.912Z,4.89
2019-02-25T06:19:24.898Z,4.90
2019-02-25T06:20:24.884Z,4.78
2019-02-25T06:21:24.871Z,4.90
2019-02-25T06:22:24.859Z,4.89
2019-02-25T06:23:24.845Z,4.86
2019-02-25T06:24:24.832Z,4.71
2019-02-25T06:25:24.820Z,4.84
2019-02-25T06:26:24.806Z,4.77
2019-02-25T06:27:30.707Z,4.82
2019-02-25T06:28:24.780Z,4.99
2019-02-25T06:29:24.766Z,5.04
2019-02-25T06:30:24.754Z,5.12
2019-02-25T06:31:24.740Z,5.21
2019-02-25T06:32:24.727Z,5.28
2019-02-25T06:33:24.714Z,5.36
2019-02-25T06:34:24.702Z,5.33
2019-02-25T06:35:24.688Z,5.33
2019-02-25T06:36:24.675Z,5.47
2019-02-25T06:37:24.665Z,5.43
2019-02-25T06:38:24.660Z,5.51
2019-02-25T06:39:24.639Z,5.48
2019-02-25T06:40:24.625Z,5.56
2019-02-25T06:41:24.610Z,5.57
2019-02-25T06:42:24.600Z,5.50
2019-02-25T06:43:24.582Z,5.54
2019-02-25T06:44:24.570Z,5.65
2019-02-25T06:45:24.557Z,5.62
2019-02-25T06:46:24.544Z,5.48
2019-02-25T06:47:24.532Z,5.54
2019-02-25T06:48:24.520Z,5.56
2019-02-25T06:49:24.507Z,5.48
2019-02-25T06:50:24.494Z,5.53
2019-02-25T06:51:24.478Z,5.46
2019-02-25T06:52:24.465Z,5.53
2019-02-25T06:53:24.451Z,5.51
2019-02-25T06:54:24.439Z,5.50
2019-02-25T06:55:24.425Z,5.48
2019-02-25T06:56:24.411Z,5.56
2019-02-25T06:57:24.401Z,5.61
2019-02-25T06:58:24.386Z,5.64
2019-02-25T06:59:24.372Z,5.48
2019-02-25T07:00:24.359Z,5.50
2019-02-25T07:01:24.346Z,5.50
2019-02-25T07:02:24.332Z,5.50
2019-02-25T07:03:24.321Z,5.48
2019-02-25T07:04:24.307Z,5.47
2019-02-25T07:05:24.293Z,5.51
2019-02-25T07:06:24.280Z,5.48
2019-02-25T07:07:24.266Z,5.53
2019-02-25T07:08:24.254Z,5.57
2019-02-25T07:09:24.241Z,5.56
2019-02-25T07:10:24.227Z,5.59
2019-02-25T07:11:24.214Z,5.56
2019-02-25T07:12:24.206Z,5.57
2019-02-25T07:13:24.189Z,5.51
2019-02-25T07:14:24.175Z,5.62
2019-02-25T07:15:24.161Z,5.65
2019-02-25T07:16:24.149Z,5.64
2019-02-25T07:17:24.136Z,5.62
2019-02-25T07:18:24.123Z,5.71
2019-02-25T07:19:24.110Z,5.66
2019-02-25T07:20:24.099Z,5.75
2019-02-25T07:21:24.084Z,5.73
2019-02-25T07:22:24.072Z,5.87
2019-02-25T07:23:24.063Z,5.86
2019-02-25T07:24:24.045Z,5.91
2019-02-25T07:25:24.033Z,5.90
2019-02-25T07:26:24.025Z,5.90
2019-02-25T07:27:24.008Z,5.94
2019-02-25T07:28:23.995Z,5.94
2019-02-25T07:29:23.983Z,6.01
2019-02-25T07:30:23.971Z,6.05
2019-02-25T07:31:23.960Z,6.11
2019-02-25T07:32:23.945Z,6.26
2019-02-25T07:33:23.939Z,6.39
2019-02-25T07:34:23.923Z,6.46
2019-02-25T07:35:25.823Z,6.66
2019-02-25T07:36:23.895Z,6.64
2019-02-25T07:37:23.884Z,6.69
2019-02-25T07:38:23.870Z,6.77
2019-02-25T07:39:23.857Z,6.95
2019-02-25T07:40:23.845Z,7.00
2019-02-25T07:41:23.832Z,6.99
2019-02-25T07:42:23.823Z,7.11
2019-02-25T07:43:23.809Z,7.18
2019-02-25T07:44:23.796Z,7.24
2019-02-25T07:45:23.784Z,7.38
2019-02-25T07:46:23.772Z,7.40
2019-02-25T07:47:23.771Z,7.39
2019-02-25T07:48:23.747Z,7.36
2019-02-25T07:49:23.737Z,7.31
2019-02-25T07:50:23.726Z,7.35
2019-02-25T07:51:23.711Z,7.40
2019-02-25T07:52:23.699Z,7.35
2019-02-25T07:53:23.687Z,7.48
2019-02-25T07:54:23.676Z,7.76
2019-02-25T07:55:23.664Z,7.97
2019-02-25T07:56:23.654Z,8.15
2019-02-25T07:57:23.643Z,8.30
2019-02-25T07:58:23.633Z,8.53
2019-02-25T07:59:23.622Z,8.78
2019-02-25T08:00:23.614Z,9.00
2019-02-25T08:01:23.606Z,9.13
2019-02-25T08:02:23.595Z,9.36
2019-02-25T08:03:23.586Z,9.40
2019-02-25T08:04:23.577Z,9.62
2019-02-25T08:05:23.569Z,9.68
2019-02-25T08:06:23.562Z,9.82
2019-02-25T08:07:23.555Z,9.94
2019-02-25T08:08:23.545Z,10.02
2019-02-25T08:09:23.538Z,10.10
2019-02-25T08:10:23.530Z,10.10
2019-02-25T08:11:23.522Z,10.17
2019-02-25T08:12:23.515Z,10.20
2019-02-25T08:13:23.509Z,10.49
2019-02-25T08:14:23.504Z,10.56
2019-02-25T08:15:23.497Z,10.79
2019-02-25T08:16:23.489Z,10.86
2019-02-25T08:17:23.503Z,11.27
2019-02-25T08:18:23.478Z,11.47
2019-02-25T08:19:23.471Z,11.63
2019-02-25T08:20:23.466Z,12.10
2019-02-25T08:21:23.461Z,12.58
2019-02-25T08:22:23.457Z,12.64
2019-02-25T08:23:23.454Z,12.80
2019-02-25T08:24:30.298Z,12.86
2019-02-25T08:25:23.444Z,13.12
2019-02-25T08:26:23.441Z,13.18
2019-02-25T08:27:23.440Z,13.37
2019-02-25T08:28:23.434Z,13.53
2019-02-25T08:29:23.431Z,13.81
2019-02-25T08:30:23.429Z,14.04
2019-02-25T08:31:23.426Z,14.22
2019-02-25T08:32:23.424Z,14.33
2019-02-25T08:33:23.422Z,14.30
2019-02-25T08:34:23.421Z,14.44
2019-02-25T08:35:23.418Z,14.40
2019-02-25T08:36:23.417Z,14.45
2019-02-25T08:37:23.415Z,14.33
2019-02-25T08:38:23.414Z,14.43
2019-02-25T08:39:23.412Z,14.58
2019-02-25T08:40:23.412Z,14.41
2019-02-25T08:41:23.411Z,14.36
2019-02-25T08:42:23.415Z,14.18
2019-02-25T08:43:23.410Z,14.18
2019-02-25T08:44:23.410Z,14.05
2019-02-25T08:45:23.413Z,14.07
2019-02-25T08:46:23.410Z,14.23
2019-02-25T08:47:23.410Z,14.33
2019-02-25T08:48:23.411Z,14.44
2019-02-25T08:49:23.411Z,14.68
2019-02-25T08:50:23.412Z,14.96
2019-02-25T08:51:23.417Z,15.18
2019-02-25T08:52:23.416Z,15.11
2019-02-25T08:53:23.415Z,15.39
2019-02-25T08:54:23.417Z,15.65
2019-02-25T08:55:23.418Z,15.84
2019-02-25T08:56:23.419Z,16.00
2019-02-25T08:57:23.421Z,15.90
2019-02-25T08:58:23.424Z,15.98
2019-02-25T08:59:23.425Z,16.17
2019-02-25T09:00:23.426Z,16.21
2019-02-25T09:01:23.429Z,16.10
2019-02-25T09:02:23.431Z,16.01
2019-02-25T09:03:23.433Z,16.26
2019-02-25T09:04:23.454Z,16.26
2019-02-25T09:05:23.438Z,16.23
2019-02-25T09:06:23.440Z,16.01
2019-02-25T09:07:23.442Z,15.76
2019-02-25T09:08:23.445Z,15.61
2019-02-25T09:09:23.447Z,15.54
2019-02-25T09:10:23.448Z,15.59
2019-02-25T09:11:23.449Z,15.70
2019-02-25T09:12:23.451Z,15.82
2019-02-25T09:13:23.944Z,15.97
2019-02-25T09:14:23.455Z,16.38
2019-02-25T09:15:23.460Z,16.51
2019-02-25T09:16:23.466Z,16.87
2019-02-25T09:17:23.460Z,17.12
2019-02-25T09:18:23.463Z,17.33
2019-02-25T09:19:23.464Z,17.52
2019-02-25T09:20:23.467Z,17.71
2019-02-25T09:21:31.623Z,17.76
2019-02-25T09:22:23.475Z,17.63
2019-02-25T09:23:23.476Z,17.63
2019-02-25T09:24:23.479Z,17.60
2019-02-25T09:25:23.483Z,17.72
2019-02-25T09:26:23.487Z,17.90
2019-02-25T09:27:23.490Z,18.08
2019-02-25T09:28:23.494Z,18.18
2019-02-25T09:29:23.498Z,18.19
2019-02-25T09:30:23.502Z,17.94
2019-02-25T09:31:23.513Z,17.92
2019-02-25T09:32:23.511Z,17.78
2019-02-25T09:33:23.516Z,17.76
2019-02-25T09:34:23.521Z,17.68
2019-02-25T09:35:23.524Z,17.76
2019-02-25T09:36:25.544Z,17.83
2019-02-25T09:37:23.534Z,17.90
2019-02-25T09:38:23.738Z,17.82
2019-02-25T09:39:23.545Z,17.95
2019-02-25T09:40:23.549Z,17.52
2019-02-25T09:41:30.022Z,17.49
2019-02-25T09:42:23.559Z,17.72
2019-02-25T09:43:23.563Z,17.78
2019-02-25T09:44:23.569Z,17.71
2019-02-25T09:45:23.574Z,17.49
2019-02-25T09:46:23.582Z,17.33
2019-02-25T09:47:23.585Z,17.09
2019-02-25T09:48:23.589Z,16.83
2019-02-25T09:49:23.594Z,16.72
2019-02-25T09:50:23.608Z,16.51
2019-02-25T09:51:23.603Z,16.60
2019-02-25T09:52:23.609Z,16.49
2019-02-25T09:53:23.614Z,16.24
2019-02-25T09:54:23.620Z,15.97
2019-02-25T09:55:23.867Z,15.94
2019-02-25T09:56:23.629Z,15.68
2019-02-25T09:57:23.633Z,15.61
2019-02-25T09:58:23.638Z,15.55
2019-02-25T09:59:23.641Z,15.57
2019-02-25T10:00:23.647Z,15.77
2019-02-25T10:01:23.650Z,16.04
2019-02-25T10:02:24.830Z,16.10
2019-02-25T10:03:23.658Z,15.82
2019-02-25T10:04:23.663Z,16.02
2019-02-25T10:05:23.668Z,16.09
2019-02-25T10:06:23.672Z,16.17
2019-02-25T10:07:23.675Z,16.29
2019-02-25T10:08:23.679Z,16.05
2019-02-25T10:09:29.671Z,16.15
2019-02-25T10:10:23.689Z,15.92
2019-02-25T10:11:23.691Z,16.15
2019-02-25T10:12:23.696Z,16.28
2019-02-25T10:13:23.700Z,16.47
2019-02-25T10:14:23.705Z,16.74
2019-02-25T10:15:23.713Z,16.84
2019-02-25T10:16:23.713Z,16.66
2019-02-25T10:17:24.220Z,16.42
2019-02-25T10:18:23.722Z,16.38
2019-02-25T10:19:23.726Z,16.20
2019-02-25T10:20:23.730Z,16.24
2019-02-25T10:21:23.734Z,16.28
2019-02-25T10:22:23.739Z,16.43
2019-02-25T10:23:23.743Z,16.56
2019-02-25T10:24:23.747Z,16.46
2019-02-25T10:25:23.752Z,16.47
2019-02-25T10:26:23.762Z,16.58
2019-02-25T10:27:23.766Z,16.68
2019-02-25T10:28:23.765Z,16.36
2019-02-25T10:29:23.770Z,16.29
2019-02-25T10:30:23.779Z,16.29
2019-02-25T10:31:23.778Z,16.54
2019-02-25T10:32:25.956Z,16.91
2019-02-25T10:33:23.787Z,17.23
2019-02-25T10:34:24.102Z,17.29
2019-02-25T10:35:24.896Z,17.56
2019-02-25T10:36:23.800Z,17.64
2019-02-25T10:37:23.805Z,17.34
2019-02-25T10:38:23.809Z,17.34
2019-02-25T10:39:23.813Z,17.02
2019-02-25T10:40:25.374Z,17.05
2019-02-25T10:41:25.561Z,16.97
2019-02-25T10:42:23.828Z,17.30
2019-02-25T10:43:25.550Z,17.42
2019-02-25T10:44:23.837Z,17.76
2019-02-25T10:45:23.842Z,17.72
2019-02-25T10:46:23.848Z,17.82
2019-02-25T10:47:23.852Z,18.05
2019-02-25T10:48:25.659Z,18.03
2019-02-25T10:49:24.493Z,18.29
2019-02-25T10:50:23.867Z,18.22
2019-02-25T10:51:23.871Z,18.23
2019-02-25T10:52:23.877Z,18.52
2019-02-25T10:53:23.882Z,18.50
2019-02-25T10:54:25.453Z,18.58
2019-02-25T10:55:23.892Z,18.75
2019-02-25T10:56:25.828Z,18.88
2019-02-25T10:57:26.391Z,18.66
2019-02-25T10:58:25.287Z,18.75
2019-02-25T10:59:23.916Z,18.77
2019-02-25T11:00:23.920Z,18.96
2019-02-25T11:01:24.592Z,19.04
2019-02-25T11:02:23.931Z,19.16
2019-02-25T11:03:23.937Z,19.37
2019-02-25T11:04:26.103Z,19.49
2019-02-25T11:05:27.274Z,19.64
2019-02-25T11:06:25.158Z,19.79
2019-02-25T11:07:23.958Z,19.64
2019-02-25T11:08:23.964Z,19.71
2019-02-25T11:09:23.969Z,19.89
2019-02-25T11:10:23.975Z,19.89
2019-02-25T11:11:25.377Z,20.04
2019-02-25T11:12:25.725Z,19.54
2019-02-25T11:13:25.448Z,19.49
2019-02-25T11:14:23.996Z,19.70
2019-02-25T11:15:24.001Z,19.70
2019-02-25T11:16:24.006Z,19.76
2019-02-25T11:17:24.460Z,19.73
2019-02-25T11:18:26.123Z,19.81
2019-02-25T11:19:24.921Z,19.71
2019-02-25T11:20:24.026Z,19.91
2019-02-25T11:21:24.034Z,19.64
2019-02-25T11:22:24.036Z,19.40
2019-02-25T11:23:24.040Z,19.27
2019-02-25T11:24:25.415Z,19.24
2019-02-25T11:25:25.806Z,19.27
2019-02-25T11:26:26.103Z,19.26
2019-02-25T11:27:24.059Z,19.39
2019-02-25T11:28:26.062Z,19.67
2019-02-25T11:29:24.068Z,19.81
2019-02-25T11:30:24.119Z,19.82
2019-02-25T11:31:26.667Z,20.06
2019-02-25T11:32:25.903Z,20.25
2019-02-25T11:33:25.245Z,20.29
2019-02-25T11:34:24.089Z,20.11
2019-02-25T11:35:24.095Z,20.18
2019-02-25T11:36:24.100Z,20.24
2019-02-25T11:37:24.734Z,19.96
2019-02-25T11:38:25.931Z,20.03
2019-02-25T11:39:25.287Z,20.25
2019-02-25T11:40:25.892Z,20.40
2019-02-25T11:41:24.117Z,20.25
2019-02-25T11:42:24.122Z,20.21
2019-02-25T11:43:24.126Z,20.37
2019-02-25T11:44:26.185Z,20.58
2019-02-25T11:45:24.131Z,20.65
2019-02-25T11:46:24.132Z,20.84
2019-02-25T11:47:24.134Z,20.88
2019-02-25T11:48:24.140Z,20.87
2019-02-25T11:49:24.140Z,20.88
2019-02-25T11:50:24.144Z,20.96
2019-02-25T11:51:24.150Z,21.12
2019-02-25T11:52:24.149Z,21.18
2019-02-25T11:53:24.151Z,21.46
2019-02-25T11:54:24.154Z,21.32
2019-02-25T11:55:24.156Z,21.37
2019-02-25T11:56:24.159Z,21.57
2019-02-25T11:57:24.162Z,21.32
2019-02-25T11:58:24.165Z,21.18
2019-02-25T11:59:24.225Z,21.24
2019-02-25T12:00:24.169Z,21.32
2019-02-25T12:01:24.171Z,21.30
2019-02-25T12:02:25.861Z,21.15
2019-02-25T12:03:24.175Z,21.30
2019-02-25T12:04:24.178Z,21.36
2019-02-25T12:05:24.184Z,21.55
2019-02-25T12:06:24.183Z,21.60
2019-02-25T12:07:24.187Z,21.72
2019-02-25T12:08:24.187Z,21.37
2019-02-25T12:09:24.189Z,21.15
2019-02-25T12:10:24.192Z,20.95
2019-02-25T12:11:24.193Z,21.00
2019-02-25T12:12:24.195Z,21.14
2019-02-25T12:13:24.198Z,20.95
2019-02-25T12:14:24.200Z,20.90
2019-02-25T12:15:24.201Z,21.09
2019-02-25T12:16:24.202Z,21.27
2019-02-25T12:17:24.206Z,21.17
2019-02-25T12:18:24.208Z,21.17
2019-02-25T12:19:24.209Z,21.48
2019-02-25T12:20:24.212Z,21.42
2019-02-25T12:21:24.214Z,21.20
2019-02-25T12:22:24.216Z,21.00
2019-02-25T12:23:24.216Z,20.90
2019-02-25T12:24:24.219Z,20.81
2019-02-25T12:25:24.221Z,20.97
2019-02-25T12:26:24.223Z,21.25
2019-02-25T12:27:24.226Z,21.64
2019-02-25T12:28:24.278Z,21.96
2019-02-25T12:29:24.230Z,21.91
2019-02-25T12:30:24.230Z,22.06
2019-02-25T12:31:24.238Z,22.43
2019-02-25T12:32:24.234Z,22.45
2019-02-25T12:33:24.239Z,22.20
2019-02-25T12:34:24.239Z,22.33
2019-02-25T12:35:24.259Z,22.08
2019-02-25T12:36:24.243Z,22.13
2019-02-25T12:37:24.245Z,22.15
2019-02-25T12:38:24.251Z,22.15
2019-02-25T12:39:24.248Z,22.10
2019-02-25T12:40:24.253Z,21.88
2019-02-25T12:41:24.252Z,21.89
2019-02-25T12:42:24.255Z,21.93
2019-02-25T12:43:24.255Z,22.06
2019-02-25T12:44:24.257Z,22.17
2019-02-25T12:45:24.259Z,22.33
2019-02-25T12:46:24.262Z,22.39
2019-02-25T12:47:24.263Z,22.26
2019-02-25T12:48:24.265Z,22.10
2019-02-25T12:49:24.269Z,21.92
2019-02-25T12:50:24.269Z,21.88
2019-02-25T12:51:24.270Z,22.17
2019-02-25T12:52:24.272Z,22.43
2019-02-25T12:53:24.276Z,22.48
2019-02-25T12:54:24.278Z,22.70
2019-02-25T12:55:24.278Z,22.93
2019-02-25T12:56:24.280Z,23.18
2019-02-25T12:57:24.282Z,23.18
2019-02-25T12:58:24.284Z,22.94
2019-02-25T12:59:24.286Z,23.15
2019-02-25T13:00:24.288Z,23.03
2019-02-25T13:01:24.290Z,22.81
2019-02-25T13:02:24.292Z,22.48
2019-02-25T13:03:24.293Z,22.45
2019-02-25T13:04:24.295Z,22.73
2019-02-25T13:05:24.297Z,22.68
2019-02-25T13:06:24.299Z,22.70
2019-02-25T13:07:24.300Z,22.76
2019-02-25T13:08:24.304Z,22.85